sensor_id;sensor_type;location;lat;lon;timestamp;noise_LAeq;noise_LA_min;noise_LA_max;noise_LA01;noise_LA95
41518;Laerm;27249;48.094;-1.690;2023-06-26T00:01:29;51.28;40.13;67.98;;
41518;Laerm;27249;48.094;-1.690;2023-06-26T00:03:56;43.35;39.81;54.51;;
41518;Laerm;27249;48.094;-1.690;2023-06-26T00:06:21;47.31;40.43;62.89;;
41518;Laerm;27249;48.094;-1.690;2023-06-26T00:08:49;46.38;39.58;57.28;;
41518;Laerm;27249;48.094;-1.690;2023-06-26T00:11:14;43.73;40.71;66.05;;
41518;Laerm;27249;48.094;-1.690;2023-06-26T00:13:40;49.39;41.30;63.19;;
41518;Laerm;27249;48.094;-1.690;2023-06-26T00:16:05;51.57;45.11;62.30;;
41518;Laerm;27249;48.094;-1.690;2023-06-26T00:18:30;50.73;41.14;63.38;;
41518;Laerm;27249;48.094;-1.690;2023-06-26T00:20:55;49.90;41.38;63.10;;
41518;Laerm;27249;48.094;-1.690;2023-06-26T00:23:21;48.53;39.58;60.02;;
41518;Laerm;27249;48.094;-1.690;2023-06-26T00:25:46;43.02;40.71;47.98;;
41518;Laerm;27249;48.094;-1.690;2023-06-26T00:28:11;46.60;40.71;59.00;;
41518;Laerm;27249;48.094;-1.690;2023-06-26T00:30:37;47.37;40.80;61.56;;
41518;Laerm;27249;48.094;-1.690;2023-06-26T00:33:02;45.80;41.06;58.68;;
41518;Laerm;27249;48.094;-1.690;2023-06-26T00:35:27;43.36;40.03;50.68;;
41518;Laerm;27249;48.094;-1.690;2023-06-26T00:37:52;43.60;40.03;65.05;;
41518;Laerm;27249;48.094;-1.690;2023-06-26T00:40:18;44.17;39.81;52.00;;
41518;Laerm;27249;48.094;-1.690;2023-06-26T00:42:43;43.45;40.98;46.35;;
41518;Laerm;27249;48.094;-1.690;2023-06-26T00:45:08;46.14;41.30;60.49;;
41518;Laerm;27249;48.094;-1.690;2023-06-26T00:47:34;45.31;40.71;56.57;;
41518;Laerm;27249;48.094;-1.690;2023-06-26T00:49:59;45.66;40.53;58.39;;
41518;Laerm;27249;48.094;-1.690;2023-06-26T00:52:24;46.98;40.96;58.81;;
41518;Laerm;27249;48.094;-1.690;2023-06-26T00:54:50;47.68;40.98;60.69;;
41518;Laerm;27249;48.094;-1.690;2023-06-26T00:57:16;43.61;40.43;48.95;;
41518;Laerm;27249;48.094;-1.690;2023-06-26T00:59:41;46.48;40.33;61.25;;
41518;Laerm;27249;48.094;-1.690;2023-06-26T01:02:07;42.98;40.33;45.20;;
41518;Laerm;27249;48.094;-1.690;2023-06-26T01:04:32;43.21;40.43;46.02;;
41518;Laerm;27249;48.094;-1.690;2023-06-26T01:06:58;44.76;41.14;53.45;;
41518;Laerm;27249;48.094;-1.690;2023-06-26T01:09:24;43.38;40.80;57.36;;
41518;Laerm;27249;48.094;-1.690;2023-06-26T01:11:50;44.78;41.22;55.72;;
41518;Laerm;27249;48.094;-1.690;2023-06-26T01:14:15;47.69;41.38;61.25;;
41518;Laerm;27249;48.094;-1.690;2023-06-26T01:16:41;46.18;40.71;58.77;;
41518;Laerm;27249;48.094;-1.690;2023-06-26T01:19:26;46.83;37.70;58.60;;
41518;Laerm;27249;48.094;-1.690;2023-06-26T01:22:00;43.49;40.89;55.83;;
41518;Laerm;27249;48.094;-1.690;2023-06-26T01:24:31;44.18;40.62;63.52;;
41518;Laerm;27249;48.094;-1.690;2023-06-26T01:26:57;43.85;41.14;58.06;;
41518;Laerm;27249;48.094;-1.690;2023-06-26T01:29:24;44.56;40.89;54.03;;
41518;Laerm;27249;48.094;-1.690;2023-06-26T01:31:50;45.34;40.79;56.25;;
41518;Laerm;27249;48.094;-1.690;2023-06-26T01:34:16;44.47;41.61;56.69;;
41518;Laerm;27249;48.094;-1.690;2023-06-26T01:36:43;45.72;41.38;57.47;;
41518;Laerm;27249;48.094;-1.690;2023-06-26T01:39:09;47.97;41.55;65.97;;
41518;Laerm;27249;48.094;-1.690;2023-06-26T01:41:34;50.08;41.68;63.31;;
41518;Laerm;27249;48.094;-1.690;2023-06-26T01:49:03;47.56;40.80;61.16;;
41518;Laerm;27249;48.094;-1.690;2023-06-26T01:51:32;43.59;40.54;47.83;;
41518;Laerm;27249;48.094;-1.690;2023-06-26T01:54:00;47.00;40.89;60.32;;
41518;Laerm;27249;48.094;-1.690;2023-06-26T01:56:26;43.55;41.14;55.61;;
41518;Laerm;27249;48.094;-1.690;2023-06-26T01:58:53;46.51;41.14;58.90;;
41518;Laerm;27249;48.094;-1.690;2023-06-26T02:01:20;43.87;41.38;52.47;;
41518;Laerm;27249;48.094;-1.690;2023-06-26T02:03:45;43.78;41.46;47.41;;
41518;Laerm;27249;48.094;-1.690;2023-06-26T02:06:10;43.53;41.22;48.02;;
41518;Laerm;27249;48.094;-1.690;2023-06-26T02:08:35;45.72;40.80;57.11;;
41518;Laerm;27249;48.094;-1.690;2023-06-26T02:11:00;43.87;41.11;51.08;;
41518;Laerm;27249;48.094;-1.690;2023-06-26T02:13:26;43.72;41.89;48.12;;
41518;Laerm;27249;48.094;-1.690;2023-06-26T02:15:51;47.44;42.22;60.85;;
41518;Laerm;27249;48.094;-1.690;2023-06-26T02:18:16;48.15;42.22;57.86;;
41518;Laerm;27249;48.094;-1.690;2023-06-26T02:20:42;44.94;41.75;54.53;;
41518;Laerm;27249;48.094;-1.690;2023-06-26T02:23:08;49.43;41.75;64.92;;
41518;Laerm;27249;48.094;-1.690;2023-06-26T02:25:34;48.98;41.96;60.24;;
41518;Laerm;27249;48.094;-1.690;2023-06-26T02:27:59;50.16;41.68;71.69;;
41518;Laerm;27249;48.094;-1.690;2023-06-26T02:30:24;48.02;41.82;59.69;;
41518;Laerm;27249;48.094;-1.690;2023-06-26T02:32:49;46.83;41.68;57.74;;
41518;Laerm;27249;48.094;-1.690;2023-06-26T02:35:15;47.05;42.22;59.64;;
41518;Laerm;27249;48.094;-1.690;2023-06-26T02:37:40;49.51;42.53;60.25;;
41518;Laerm;27249;48.094;-1.690;2023-06-26T02:40:05;51.04;41.30;63.29;;
41518;Laerm;27249;48.094;-1.690;2023-06-26T02:42:32;47.38;42.09;58.85;;
41518;Laerm;27249;48.094;-1.690;2023-06-26T02:44:58;54.31;42.71;70.21;;
41518;Laerm;27249;48.094;-1.690;2023-06-26T02:47:23;51.94;42.76;66.29;;
41518;Laerm;27249;48.094;-1.690;2023-06-26T02:49:48;44.59;40.79;53.36;;
41518;Laerm;27249;48.094;-1.690;2023-06-26T02:52:13;49.36;41.75;61.34;;
41518;Laerm;27249;48.094;-1.690;2023-06-26T02:54:38;51.82;42.41;63.49;;
41518;Laerm;27249;48.094;-1.690;2023-06-26T02:57:04;49.10;42.09;62.92;;
41518;Laerm;27249;48.094;-1.690;2023-06-26T02:59:29;48.78;42.09;60.48;;
41518;Laerm;27249;48.094;-1.690;2023-06-26T03:01:54;53.13;43.24;68.36;;
41518;Laerm;27249;48.094;-1.690;2023-06-26T03:04:19;48.92;43.44;58.92;;
41518;Laerm;27249;48.094;-1.690;2023-06-26T03:06:46;50.78;43.09;63.93;;
41518;Laerm;27249;48.094;-1.690;2023-06-26T03:09:11;54.63;42.98;66.06;;
41518;Laerm;27249;48.094;-1.690;2023-06-26T03:11:36;50.91;42.65;67.66;;
41518;Laerm;27249;48.094;-1.690;2023-06-26T03:14:02;52.73;43.34;67.58;;
41518;Laerm;27249;48.094;-1.690;2023-06-26T03:16:27;50.18;42.53;66.41;;
41518;Laerm;27249;48.094;-1.690;2023-06-26T03:18:52;51.94;43.14;63.56;;
41518;Laerm;27249;48.094;-1.690;2023-06-26T03:21:17;52.01;43.29;64.93;;
41518;Laerm;27249;48.094;-1.690;2023-06-26T03:23:42;53.92;43.77;65.77;;
41518;Laerm;27249;48.094;-1.690;2023-06-26T03:26:08;51.88;43.34;65.74;;
41518;Laerm;27249;48.094;-1.690;2023-06-26T03:28:33;51.60;43.63;64.86;;
41518;Laerm;27249;48.094;-1.690;2023-06-26T03:30:58;50.97;43.54;65.43;;
41518;Laerm;27249;48.094;-1.690;2023-06-26T03:33:24;50.24;44.07;61.57;;
41518;Laerm;27249;48.094;-1.690;2023-06-26T03:35:49;56.42;44.62;80.99;;
41518;Laerm;27249;48.094;-1.690;2023-06-26T03:38:14;49.88;43.81;63.17;;
41518;Laerm;27249;48.094;-1.690;2023-06-26T03:40:39;53.28;44.42;63.57;;
41518;Laerm;27249;48.094;-1.690;2023-06-26T03:43:05;50.46;43.99;62.84;;
41518;Laerm;27249;48.094;-1.690;2023-06-26T03:45:30;51.69;44.43;62.38;;
41518;Laerm;27249;48.094;-1.690;2023-06-26T03:47:55;50.93;43.77;62.61;;
41518;Laerm;27249;48.094;-1.690;2023-06-26T03:50:20;50.23;44.27;63.99;;
41518;Laerm;27249;48.094;-1.690;2023-06-26T03:52:45;50.69;44.23;59.57;;
41518;Laerm;27249;48.094;-1.690;2023-06-26T03:55:11;49.43;44.31;60.50;;
41518;Laerm;27249;48.094;-1.690;2023-06-26T03:57:36;50.76;44.03;67.08;;
41518;Laerm;27249;48.094;-1.690;2023-06-26T04:00:02;52.13;44.31;65.24;;
41518;Laerm;27249;48.094;-1.690;2023-06-26T04:02:31;54.41;45.54;64.62;;
41518;Laerm;27249;48.094;-1.690;2023-06-26T04:04:56;53.17;44.80;64.43;;
41518;Laerm;27249;48.094;-1.690;2023-06-26T04:07:21;51.43;44.43;59.78;;
41518;Laerm;27249;48.094;-1.690;2023-06-26T04:09:46;52.11;45.20;60.38;;
41518;Laerm;27249;48.094;-1.690;2023-06-26T04:12:11;55.57;44.15;65.86;;
41518;Laerm;27249;48.094;-1.690;2023-06-26T04:14:37;50.05;44.15;65.06;;
41518;Laerm;27249;48.094;-1.690;2023-06-26T04:17:02;54.72;44.76;66.11;;
41518;Laerm;27249;48.094;-1.690;2023-06-26T04:19:28;52.51;44.73;64.50;;
41518;Laerm;27249;48.094;-1.690;2023-06-26T04:21:53;51.78;44.54;65.95;;
41518;Laerm;27249;48.094;-1.690;2023-06-26T04:24:19;51.59;44.76;60.58;;
41518;Laerm;27249;48.094;-1.690;2023-06-26T04:26:44;51.62;45.83;63.94;;
41518;Laerm;27249;48.094;-1.690;2023-06-26T04:29:10;53.59;45.01;64.75;;
41518;Laerm;27249;48.094;-1.690;2023-06-26T04:31:35;51.98;45.20;66.36;;
41518;Laerm;27249;48.094;-1.690;2023-06-26T04:34:01;56.70;45.17;67.66;;
41518;Laerm;27249;48.094;-1.690;2023-06-26T04:36:26;55.06;45.91;67.40;;
41518;Laerm;27249;48.094;-1.690;2023-06-26T04:38:54;54.62;46.23;64.13;;
41518;Laerm;27249;48.094;-1.690;2023-06-26T04:41:20;54.90;46.93;63.34;;
41518;Laerm;27249;48.094;-1.690;2023-06-26T04:43:45;52.61;47.04;62.53;;
41518;Laerm;27249;48.094;-1.690;2023-06-26T04:46:10;53.69;48.02;63.79;;
41518;Laerm;27249;48.094;-1.690;2023-06-26T04:48:36;54.68;47.10;64.46;;
41518;Laerm;27249;48.094;-1.690;2023-06-26T04:51:01;56.95;49.44;67.69;;
41518;Laerm;27249;48.094;-1.690;2023-06-26T04:53:26;55.76;48.49;66.06;;
41518;Laerm;27249;48.094;-1.690;2023-06-26T04:55:52;55.94;46.05;65.23;;
41518;Laerm;27249;48.094;-1.690;2023-06-26T04:58:18;54.55;46.91;66.96;;
41518;Laerm;27249;48.094;-1.690;2023-06-26T05:00:43;53.86;45.86;62.40;;
41518;Laerm;27249;48.094;-1.690;2023-06-26T05:03:12;57.37;49.75;65.94;;
41518;Laerm;27249;48.094;-1.690;2023-06-26T05:05:37;56.54;47.93;63.44;;
41518;Laerm;27249;48.094;-1.690;2023-06-26T05:08:20;56.21;49.56;64.28;;
41518;Laerm;27249;48.094;-1.690;2023-06-26T05:10:45;57.42;48.43;70.70;;
41518;Laerm;27249;48.094;-1.690;2023-06-26T05:13:10;57.30;48.80;67.70;;
41518;Laerm;27249;48.094;-1.690;2023-06-26T05:15:36;56.05;48.48;65.08;;
41518;Laerm;27249;48.094;-1.690;2023-06-26T05:18:01;54.89;49.19;63.77;;
41518;Laerm;27249;48.094;-1.690;2023-06-26T05:20:27;54.55;47.90;62.03;;
41518;Laerm;27249;48.094;-1.690;2023-06-26T05:22:52;58.88;50.70;66.68;;
41518;Laerm;27249;48.094;-1.690;2023-06-26T05:25:18;56.89;49.75;70.03;;
41518;Laerm;27249;48.094;-1.690;2023-06-26T05:27:43;58.03;50.00;65.10;;
41518;Laerm;27249;48.094;-1.690;2023-06-26T05:30:09;57.04;51.15;63.61;;
41518;Laerm;27249;48.094;-1.690;2023-06-26T05:32:34;55.54;48.28;61.54;;
41518;Laerm;27249;48.094;-1.690;2023-06-26T05:35:01;55.73;49.30;65.23;;
41518;Laerm;27249;48.094;-1.690;2023-06-26T05:37:27;57.98;51.99;67.91;;
41518;Laerm;27249;48.094;-1.690;2023-06-26T05:39:53;57.47;50.12;62.68;;
41518;Laerm;27249;48.094;-1.690;2023-06-26T05:42:18;56.32;51.15;63.34;;
41518;Laerm;27249;48.094;-1.690;2023-06-26T05:44:43;56.38;49.27;61.54;;
41518;Laerm;27249;48.094;-1.690;2023-06-26T05:47:09;56.57;49.84;66.22;;
41518;Laerm;27249;48.094;-1.690;2023-06-26T05:49:34;56.40;48.54;64.14;;
41518;Laerm;27249;48.094;-1.690;2023-06-26T05:51:59;56.80;50.22;66.77;;
41518;Laerm;27249;48.094;-1.690;2023-06-26T05:54:25;57.73;50.67;67.73;;
41518;Laerm;27249;48.094;-1.690;2023-06-26T05:56:52;56.21;51.13;72.86;;
41518;Laerm;27249;48.094;-1.690;2023-06-26T05:59:18;56.48;50.37;63.52;;
41518;Laerm;27249;48.094;-1.690;2023-06-26T06:01:44;57.64;49.46;68.51;;
41518;Laerm;27249;48.094;-1.690;2023-06-26T06:04:09;58.37;52.57;66.82;;
41518;Laerm;27249;48.094;-1.690;2023-06-26T06:06:34;57.54;52.89;64.28;;
41518;Laerm;27249;48.094;-1.690;2023-06-26T06:08:59;57.05;50.98;63.27;;
41518;Laerm;27249;48.094;-1.690;2023-06-26T06:11:25;58.39;52.92;70.78;;
41518;Laerm;27249;48.094;-1.690;2023-06-26T06:13:50;56.97;50.94;61.83;;
41518;Laerm;27249;48.094;-1.690;2023-06-26T06:16:15;57.96;51.87;67.87;;
41518;Laerm;27249;48.094;-1.690;2023-06-26T06:18:42;56.35;50.74;65.26;;
41518;Laerm;27249;48.094;-1.690;2023-06-26T06:21:07;58.95;52.06;79.76;;
41518;Laerm;27249;48.094;-1.690;2023-06-26T06:23:32;56.60;50.57;63.50;;
41518;Laerm;27249;48.094;-1.690;2023-06-26T06:25:57;56.93;50.65;62.25;;
41518;Laerm;27249;48.094;-1.690;2023-06-26T06:28:22;56.57;51.67;63.14;;
41518;Laerm;27249;48.094;-1.690;2023-06-26T06:30:48;55.72;51.88;67.52;;
41518;Laerm;27249;48.094;-1.690;2023-06-26T06:33:13;56.59;51.78;62.64;;
41518;Laerm;27249;48.094;-1.690;2023-06-26T06:35:39;55.67;50.87;62.19;;
41518;Laerm;27249;48.094;-1.690;2023-06-26T06:38:04;56.36;50.11;67.05;;
41518;Laerm;27249;48.094;-1.690;2023-06-26T06:40:29;57.91;51.13;72.27;;
41518;Laerm;27249;48.094;-1.690;2023-06-26T06:42:55;57.24;50.69;67.81;;
41518;Laerm;27249;48.094;-1.690;2023-06-26T06:45:20;56.85;50.21;63.62;;
41518;Laerm;27249;48.094;-1.690;2023-06-26T06:47:45;57.48;49.91;65.40;;
41518;Laerm;27249;48.094;-1.690;2023-06-26T06:50:10;57.23;52.74;61.82;;
41518;Laerm;27249;48.094;-1.690;2023-06-26T06:52:39;57.22;51.36;67.90;;
41518;Laerm;27249;48.094;-1.690;2023-06-26T06:55:05;56.33;48.37;62.46;;
41518;Laerm;27249;48.094;-1.690;2023-06-26T06:57:33;56.57;51.56;64.82;;
41518;Laerm;27249;48.094;-1.690;2023-06-26T07:00:09;56.73;52.17;67.25;;
41518;Laerm;27249;48.094;-1.690;2023-06-26T07:02:35;57.37;51.30;67.87;;
41518;Laerm;27249;48.094;-1.690;2023-06-26T07:05:01;57.88;53.47;67.51;;
41518;Laerm;27249;48.094;-1.690;2023-06-26T07:07:28;55.93;48.88;64.59;;
41518;Laerm;27249;48.094;-1.690;2023-06-26T07:09:53;55.73;49.40;63.39;;
41518;Laerm;27249;48.094;-1.690;2023-06-26T07:12:18;56.48;48.88;64.82;;
41518;Laerm;27249;48.094;-1.690;2023-06-26T07:14:44;56.90;49.29;68.74;;
41518;Laerm;27249;48.094;-1.690;2023-06-26T07:17:09;54.78;47.63;68.63;;
41518;Laerm;27249;48.094;-1.690;2023-06-26T07:19:34;55.65;49.36;62.08;;
41518;Laerm;27249;48.094;-1.690;2023-06-26T07:21:59;55.57;49.52;63.99;;
41518;Laerm;27249;48.094;-1.690;2023-06-26T07:24:24;55.78;49.78;61.50;;
41518;Laerm;27249;48.094;-1.690;2023-06-26T07:26:50;56.80;50.72;64.18;;
41518;Laerm;27249;48.094;-1.690;2023-06-26T07:29:15;56.11;46.25;63.54;;
41518;Laerm;27249;48.094;-1.690;2023-06-26T07:31:40;55.11;47.44;61.64;;
41518;Laerm;27249;48.094;-1.690;2023-06-26T07:34:05;56.24;46.93;63.80;;
41518;Laerm;27249;48.094;-1.690;2023-06-26T07:36:31;56.41;49.29;66.57;;
41518;Laerm;27249;48.094;-1.690;2023-06-26T07:38:56;55.82;47.95;64.16;;
41518;Laerm;27249;48.094;-1.690;2023-06-26T07:41:21;56.92;49.44;69.49;;
41518;Laerm;27249;48.094;-1.690;2023-06-26T07:43:46;57.32;47.65;68.43;;
41518;Laerm;27249;48.094;-1.690;2023-06-26T07:46:12;56.34;48.84;62.27;;
41518;Laerm;27249;48.094;-1.690;2023-06-26T07:48:37;58.22;48.26;67.04;;
41518;Laerm;27249;48.094;-1.690;2023-06-26T07:51:02;56.09;48.25;69.72;;
41518;Laerm;27249;48.094;-1.690;2023-06-26T07:53:27;55.05;49.07;61.73;;
41518;Laerm;27249;48.094;-1.690;2023-06-26T07:55:52;55.10;49.03;60.87;;
41518;Laerm;27249;48.094;-1.690;2023-06-26T07:58:18;56.35;49.46;64.44;;
41518;Laerm;27249;48.094;-1.690;2023-06-26T08:00:43;55.79;47.08;67.78;;
41518;Laerm;27249;48.094;-1.690;2023-06-26T08:03:08;55.82;47.26;64.46;;
41518;Laerm;27249;48.094;-1.690;2023-06-26T08:05:33;56.21;49.56;63.71;;
41518;Laerm;27249;48.094;-1.690;2023-06-26T08:07:59;55.19;49.55;61.66;;
41518;Laerm;27249;48.094;-1.690;2023-06-26T08:10:26;55.92;49.03;63.24;;
41518;Laerm;27249;48.094;-1.690;2023-06-26T08:12:52;54.74;47.63;62.07;;
41518;Laerm;27249;48.094;-1.690;2023-06-26T08:15:17;57.47;51.09;66.45;;
41518;Laerm;27249;48.094;-1.690;2023-06-26T08:17:43;55.94;51.45;61.92;;
41518;Laerm;27249;48.094;-1.690;2023-06-26T08:20:08;54.61;47.00;59.17;;
41518;Laerm;27249;48.094;-1.690;2023-06-26T08:22:34;55.64;48.28;60.89;;
41518;Laerm;27249;48.094;-1.690;2023-06-26T08:24:59;56.54;47.84;64.17;;
41518;Laerm;27249;48.094;-1.690;2023-06-26T08:27:24;54.93;48.91;63.86;;
41518;Laerm;27249;48.094;-1.690;2023-06-26T08:29:49;56.21;47.20;67.80;;
41518;Laerm;27249;48.094;-1.690;2023-06-26T08:32:15;55.87;48.02;63.02;;
41518;Laerm;27249;48.094;-1.690;2023-06-26T08:34:40;54.80;49.57;62.65;;
41518;Laerm;27249;48.094;-1.690;2023-06-26T08:37:05;55.93;49.82;65.60;;
41518;Laerm;27249;48.094;-1.690;2023-06-26T08:39:34;56.01;48.60;61.96;;
41518;Laerm;27249;48.094;-1.690;2023-06-26T08:41:59;55.57;47.42;62.50;;
41518;Laerm;27249;48.094;-1.690;2023-06-26T08:44:24;56.73;48.82;68.84;;
41518;Laerm;27249;48.094;-1.690;2023-06-26T08:46:50;55.56;50.33;60.86;;
41518;Laerm;27249;48.094;-1.690;2023-06-26T08:49:25;55.56;46.82;67.58;;
41518;Laerm;27249;48.094;-1.690;2023-06-26T08:51:57;55.69;49.10;66.57;;
41518;Laerm;27249;48.094;-1.690;2023-06-26T08:54:27;56.68;48.16;68.08;;
41518;Laerm;27249;48.094;-1.690;2023-06-26T08:56:53;57.40;49.84;65.27;;
41518;Laerm;27249;48.094;-1.690;2023-06-26T08:59:20;56.06;48.36;65.24;;
41518;Laerm;27249;48.094;-1.690;2023-06-26T09:01:46;56.23;48.03;66.07;;
41518;Laerm;27249;48.094;-1.690;2023-06-26T09:04:11;55.20;47.67;64.23;;
41518;Laerm;27249;48.094;-1.690;2023-06-26T09:06:36;56.57;48.78;63.36;;
41518;Laerm;27249;48.094;-1.690;2023-06-26T09:09:02;55.31;48.12;61.39;;
41518;Laerm;27249;48.094;-1.690;2023-06-26T09:11:28;55.34;49.50;60.25;;
41518;Laerm;27249;48.094;-1.690;2023-06-26T09:13:54;56.54;48.46;67.08;;
41518;Laerm;27249;48.094;-1.690;2023-06-26T09:16:23;54.88;48.52;62.48;;
41518;Laerm;27249;48.094;-1.690;2023-06-26T09:18:48;54.75;49.47;62.12;;
41518;Laerm;27249;48.094;-1.690;2023-06-26T09:21:15;56.08;49.71;70.06;;
41518;Laerm;27249;48.094;-1.690;2023-06-26T09:23:41;54.46;47.54;61.85;;
41518;Laerm;27249;48.094;-1.690;2023-06-26T09:26:06;55.71;47.93;66.33;;
41518;Laerm;27249;48.094;-1.690;2023-06-26T09:28:32;56.40;51.01;70.32;;
41518;Laerm;27249;48.094;-1.690;2023-06-26T09:31:04;55.28;47.46;65.43;;
41518;Laerm;27249;48.094;-1.690;2023-06-26T09:33:34;55.37;47.26;62.93;;
41518;Laerm;27249;48.094;-1.690;2023-06-26T09:36:06;56.20;47.50;63.35;;
41518;Laerm;27249;48.094;-1.690;2023-06-26T09:38:33;56.99;47.83;66.72;;
41518;Laerm;27249;48.094;-1.690;2023-06-26T09:40:58;55.45;49.43;63.40;;
41518;Laerm;27249;48.094;-1.690;2023-06-26T09:43:24;55.50;48.66;66.71;;
41518;Laerm;27249;48.094;-1.690;2023-06-26T09:45:49;57.98;47.28;69.89;;
41518;Laerm;27249;48.094;-1.690;2023-06-26T09:48:14;55.24;46.52;61.82;;
41518;Laerm;27249;48.094;-1.690;2023-06-26T09:50:42;55.93;51.76;61.48;;
41518;Laerm;27249;48.094;-1.690;2023-06-26T09:53:07;54.17;47.63;60.17;;
41518;Laerm;27249;48.094;-1.690;2023-06-26T09:55:34;56.51;48.20;64.97;;
41518;Laerm;27249;48.094;-1.690;2023-06-26T09:58:00;56.68;51.06;66.60;;
41518;Laerm;27249;48.094;-1.690;2023-06-26T10:00:27;56.02;50.45;61.63;;
41518;Laerm;27249;48.094;-1.690;2023-06-26T10:02:52;56.01;49.29;63.33;;
41518;Laerm;27249;48.094;-1.690;2023-06-26T10:05:17;57.53;48.60;70.42;;
41518;Laerm;27249;48.094;-1.690;2023-06-26T10:07:42;56.30;50.15;64.22;;
41518;Laerm;27249;48.094;-1.690;2023-06-26T10:10:08;56.02;49.67;63.99;;
41518;Laerm;27249;48.094;-1.690;2023-06-26T10:12:33;56.34;48.35;63.62;;
41518;Laerm;27249;48.094;-1.690;2023-06-26T10:15:00;55.89;50.58;66.72;;
41518;Laerm;27249;48.094;-1.690;2023-06-26T10:17:30;55.34;47.98;61.44;;
41518;Laerm;27249;48.094;-1.690;2023-06-26T10:19:55;56.63;51.66;64.14;;
41518;Laerm;27249;48.094;-1.690;2023-06-26T10:22:24;55.86;49.28;64.32;;
41518;Laerm;27249;48.094;-1.690;2023-06-26T10:24:52;56.04;47.32;63.36;;
41518;Laerm;27249;48.094;-1.690;2023-06-26T10:27:20;56.40;50.70;66.06;;
41518;Laerm;27249;48.094;-1.690;2023-06-26T10:29:47;57.51;50.30;66.75;;
41518;Laerm;27249;48.094;-1.690;2023-06-26T10:32:13;55.18;49.07;62.61;;
41518;Laerm;27249;48.094;-1.690;2023-06-26T10:34:40;57.77;49.39;68.83;;
41518;Laerm;27249;48.094;-1.690;2023-06-26T10:37:05;56.91;47.26;66.23;;
41518;Laerm;27249;48.094;-1.690;2023-06-26T10:39:46;57.79;48.40;77.83;;
41518;Laerm;27249;48.094;-1.690;2023-06-26T10:42:13;55.77;48.84;67.58;;
41518;Laerm;27249;48.094;-1.690;2023-06-26T10:44:40;55.59;49.74;61.57;;
41518;Laerm;27249;48.094;-1.690;2023-06-26T10:47:06;54.75;49.87;61.00;;
41518;Laerm;27249;48.094;-1.690;2023-06-26T10:49:31;56.59;45.36;71.04;;
41518;Laerm;27249;48.094;-1.690;2023-06-26T10:52:00;54.92;48.08;63.95;;
41518;Laerm;27249;48.094;-1.690;2023-06-26T10:54:28;54.65;47.70;66.04;;
41518;Laerm;27249;48.094;-1.690;2023-06-26T10:56:54;57.79;49.33;74.56;;
41518;Laerm;27249;48.094;-1.690;2023-06-26T10:59:26;56.90;48.56;66.09;;
41518;Laerm;27249;48.094;-1.690;2023-06-26T11:04:35;62.68;49.24;81.61;;
41518;Laerm;27249;48.094;-1.690;2023-06-26T11:07:18;54.78;47.38;66.17;;
41518;Laerm;27249;48.094;-1.690;2023-06-26T11:09:56;55.56;47.93;64.55;;
41518;Laerm;27249;48.094;-1.690;2023-06-26T11:12:38;55.16;49.29;65.39;;
41518;Laerm;27249;48.094;-1.690;2023-06-26T11:15:07;55.52;47.81;61.88;;
41518;Laerm;27249;48.094;-1.690;2023-06-26T11:17:32;54.16;46.97;60.60;;
41518;Laerm;27249;48.094;-1.690;2023-06-26T11:19:57;56.69;49.82;66.66;;
41518;Laerm;27249;48.094;-1.690;2023-06-26T11:22:23;55.70;48.80;64.54;;
41518;Laerm;27249;48.094;-1.690;2023-06-26T11:24:51;58.03;49.28;67.98;;
41518;Laerm;27249;48.094;-1.690;2023-06-26T11:27:18;56.07;49.32;64.26;;
41518;Laerm;27249;48.094;-1.690;2023-06-26T11:29:47;57.41;48.94;71.32;;
41518;Laerm;27249;48.094;-1.690;2023-06-26T11:32:12;56.57;48.00;69.38;;
41518;Laerm;27249;48.094;-1.690;2023-06-26T11:34:38;56.18;49.08;66.35;;
41518;Laerm;27249;48.094;-1.690;2023-06-26T11:37:03;55.38;48.20;65.58;;
41518;Laerm;27249;48.094;-1.690;2023-06-26T11:39:29;55.20;48.85;63.30;;
41518;Laerm;27249;48.094;-1.690;2023-06-26T11:41:54;56.00;50.42;64.00;;
41518;Laerm;27249;48.094;-1.690;2023-06-26T11:44:19;55.80;49.88;63.43;;
41518;Laerm;27249;48.094;-1.690;2023-06-26T11:46:46;55.08;48.99;63.96;;
41518;Laerm;27249;48.094;-1.690;2023-06-26T11:49:14;56.74;51.05;67.01;;
41518;Laerm;27249;48.094;-1.690;2023-06-26T11:51:41;56.70;50.79;66.19;;
41518;Laerm;27249;48.094;-1.690;2023-06-26T11:54:06;56.40;49.00;67.50;;
41518;Laerm;27249;48.094;-1.690;2023-06-26T11:56:31;67.09;49.43;84.65;;
41518;Laerm;27249;48.094;-1.690;2023-06-26T11:58:58;56.63;47.76;63.55;;
41518;Laerm;27249;48.094;-1.690;2023-06-26T12:01:34;56.76;48.73;69.34;;
41518;Laerm;27249;48.094;-1.690;2023-06-26T12:04:00;53.85;46.15;64.09;;
41518;Laerm;27249;48.094;-1.690;2023-06-26T12:06:26;57.33;50.55;66.03;;
41518;Laerm;27249;48.094;-1.690;2023-06-26T12:08:52;55.46;46.97;64.52;;
41518;Laerm;27249;48.094;-1.690;2023-06-26T12:11:17;55.69;47.30;62.31;;
41518;Laerm;27249;48.094;-1.690;2023-06-26T12:13:43;55.34;47.57;72.36;;
41518;Laerm;27249;48.094;-1.690;2023-06-26T12:16:10;56.68;48.78;76.59;;
41518;Laerm;27249;48.094;-1.690;2023-06-26T12:18:35;55.32;47.20;68.65;;
41518;Laerm;27249;48.094;-1.690;2023-06-26T12:21:01;55.49;49.10;62.13;;
41518;Laerm;27249;48.094;-1.690;2023-06-26T12:23:59;55.36;47.00;67.98;;
41518;Laerm;27249;48.094;-1.690;2023-06-26T12:26:21;55.54;48.73;65.83;;
41518;Laerm;27249;48.094;-1.690;2023-06-26T12:28:46;56.19;50.19;65.43;;
41518;Laerm;27249;48.094;-1.690;2023-06-26T12:31:15;54.22;45.23;63.95;;
41518;Laerm;27249;48.094;-1.690;2023-06-26T12:33:44;55.94;49.56;64.62;;
41518;Laerm;27249;48.094;-1.690;2023-06-26T12:36:12;55.35;46.41;62.33;;
41518;Laerm;27249;48.094;-1.690;2023-06-26T12:38:38;55.41;49.40;66.02;;
41518;Laerm;27249;48.094;-1.690;2023-06-26T12:41:03;55.48;48.85;62.59;;
41518;Laerm;27249;48.094;-1.690;2023-06-26T12:43:28;54.01;45.23;67.20;;
41518;Laerm;27249;48.094;-1.690;2023-06-26T12:45:54;56.49;47.65;75.09;;
41518;Laerm;27249;48.094;-1.690;2023-06-26T12:48:19;53.30;46.76;62.65;;
41518;Laerm;27249;48.094;-1.690;2023-06-26T12:50:45;55.65;48.00;64.17;;
41518;Laerm;27249;48.094;-1.690;2023-06-26T12:53:10;56.46;48.36;64.09;;
41518;Laerm;27249;48.094;-1.690;2023-06-26T12:55:36;54.67;47.90;61.51;;
41518;Laerm;27249;48.094;-1.690;2023-06-26T12:58:01;55.42;49.32;72.64;;
41518;Laerm;27249;48.094;-1.690;2023-06-26T13:00:26;54.88;47.77;68.69;;
41518;Laerm;27249;48.094;-1.690;2023-06-26T13:02:52;57.23;46.59;68.72;;
41518;Laerm;27249;48.094;-1.690;2023-06-26T13:05:17;54.59;47.95;78.09;;
41518;Laerm;27249;48.094;-1.690;2023-06-26T13:07:42;56.01;48.71;68.56;;
41518;Laerm;27249;48.094;-1.690;2023-06-26T13:10:07;56.00;49.67;69.51;;
41518;Laerm;27249;48.094;-1.690;2023-06-26T13:12:33;55.43;45.72;64.77;;
41518;Laerm;27249;48.094;-1.690;2023-06-26T13:14:58;55.31;48.52;75.66;;
41518;Laerm;27249;48.094;-1.690;2023-06-26T13:17:24;55.34;46.33;68.11;;
41518;Laerm;27249;48.094;-1.690;2023-06-26T13:19:49;56.66;50.56;70.13;;
41518;Laerm;27249;48.094;-1.690;2023-06-26T13:22:14;56.87;48.81;65.68;;
41518;Laerm;27249;48.094;-1.690;2023-06-26T13:24:39;55.76;49.36;66.38;;
41518;Laerm;27249;48.094;-1.690;2023-06-26T13:27:06;55.29;48.28;64.69;;
41518;Laerm;27249;48.094;-1.690;2023-06-26T13:29:31;56.77;48.92;66.75;;
41518;Laerm;27249;48.094;-1.690;2023-06-26T13:31:57;55.12;46.50;62.53;;
41518;Laerm;27249;48.094;-1.690;2023-06-26T13:34:23;55.92;44.47;67.18;;